Time;durP1;ratioP1;P1;durP2;ratioP2;P2;SDS_P1;SDS_P2;PMS_P1;PMS_P2;Temp;Humidity;BMP_temperature;BMP_pressure;BME280_temperature;BME280_humidity;BME280_pressure;Samples;Min_cycle;Max_cycle;Signal;HPM_P1;HPM_P2
2023/04/19 00:01:24;;;;;;;7.88;5.53;;;11.70;99.90;;;;;;5032749;28;20028;-46
2023/04/19 00:03:50;;;;;;;8.90;6.00;;;11.70;99.90;;;;;;5031601;28;20037;-44
2023/04/19 00:06:16;;;;;;;5.95;5.35;;;11.70;99.90;;;;;;5032966;28;20033;-44
2023/04/19 00:08:42;;;;;;;6.97;5.85;;;11.70;99.90;;;;;;5033177;28;20028;-44
2023/04/19 00:11:08;;;;;;;7.88;6.13;;;11.70;99.90;;;;;;5031896;28;20556;-47
2023/04/19 00:13:34;;;;;;;7.13;5.45;;;11.70;99.90;;;;;;5031665;28;20044;-44
2023/04/19 00:16:01;;;;;;;7.25;5.50;;;11.70;99.90;;;;;;5033046;28;20383;-46
2023/04/19 00:18:27;;;;;;;7.57;5.90;;;11.60;99.90;;;;;;5033119;28;20073;-44
2023/04/19 00:20:52;;;;;;;7.32;5.75;;;11.70;99.90;;;;;;5031283;28;20099;-45
2023/04/19 00:23:18;;;;;;;7.55;5.85;;;11.70;99.90;;;;;;5031653;28;20059;-44
2023/04/19 00:25:48;;;;;;;10.52;5.88;;;11.70;99.90;;;;;;5030400;28;20018;-45
2023/04/19 00:28:14;;;;;;;7.63;6.03;;;11.60;99.90;;;;;;5031148;28;20061;-44
2023/04/19 00:30:39;;;;;;;7.95;5.60;;;11.60;99.90;;;;;;5032000;28;20017;-46
2023/04/19 00:33:11;;;;;;;9.68;6.57;;;11.70;99.90;;;;;;5031046;28;20018;-44
2023/04/19 00:35:37;;;;;;;8.38;6.10;;;11.60;99.90;;;;;;5031550;28;20402;-45
2023/04/19 00:38:03;;;;;;;9.20;5.93;;;11.70;99.90;;;;;;5031145;28;20056;-46
2023/04/19 00:40:31;;;;;;;7.30;5.30;;;11.60;99.90;;;;;;5032122;28;20491;-44
2023/04/19 00:42:57;;;;;;;7.95;5.55;;;11.60;99.90;;;;;;5031797;28;20033;-43
2023/04/19 00:45:22;;;;;;;7.03;5.60;;;11.60;99.90;;;;;;5031377;28;20059;-45
2023/04/19 00:47:48;;;;;;;8.70;6.47;;;11.70;99.90;;;;;;5031577;28;20033;-44
2023/04/19 00:50:14;;;;;;;6.72;5.55;;;11.60;99.90;;;;;;5032174;28;20598;-42
2023/04/19 00:52:40;;;;;;;7.97;6.22;;;11.60;99.90;;;;;;5031957;28;20026;-44
2023/04/19 00:55:07;;;;;;;7.50;5.95;;;11.60;99.90;;;;;;5033032;28;20017;-44
2023/04/19 00:57:32;;;;;;;8.70;5.72;;;11.60;99.90;;;;;;5031371;28;20022;-45
2023/04/19 00:59:58;;;;;;;7.60;5.57;;;11.60;99.90;;;;;;5030688;28;20178;-47
2023/04/19 01:02:27;;;;;;;6.32;5.57;;;11.60;99.90;;;;;;5032151;28;20033;-45
2023/04/19 01:04:52;;;;;;;8.65;6.40;;;11.60;99.90;;;;;;5032079;28;20029;-45
2023/04/19 01:07:18;;;;;;;8.18;6.47;;;11.60;99.90;;;;;;5030884;28;20041;-45
2023/04/19 01:09:44;;;;;;;10.02;6.50;;;11.60;99.90;;;;;;5031291;28;20442;-44
2023/04/19 01:12:10;;;;;;;9.98;6.63;;;11.60;99.90;;;;;;5032041;28;20113;-44
2023/04/19 01:14:36;;;;;;;8.25;5.78;;;11.60;99.90;;;;;;5031410;28;20112;-45
2023/04/19 01:17:01;;;;;;;7.55;5.75;;;11.60;99.90;;;;;;5030274;28;20036;-47
2023/04/19 01:19:27;;;;;;;8.48;6.63;;;11.60;99.90;;;;;;5031492;28;20021;-44
2023/04/19 01:21:55;;;;;;;9.48;6.65;;;11.60;99.90;;;;;;5032310;28;20415;-45
2023/04/19 01:24:20;;;;;;;9.38;6.95;;;11.60;99.90;;;;;;5035745;28;20091;-44
2023/04/19 01:26:46;;;;;;;10.27;7.20;;;11.60;99.90;;;;;;5035046;28;20421;-44
2023/04/19 01:29:12;;;;;;;9.98;7.65;;;11.60;99.90;;;;;;5035147;28;20431;-44
2023/04/19 01:31:37;;;;;;;10.88;7.50;;;11.60;99.90;;;;;;5035992;28;20033;-45
2023/04/19 01:34:03;;;;;;;9.13;6.82;;;11.60;99.90;;;;;;5034756;28;20056;-47
2023/04/19 01:36:29;;;;;;;10.65;7.63;;;11.60;99.90;;;;;;5035480;28;20033;-46
2023/04/19 01:38:55;;;;;;;7.68;6.32;;;11.60;99.90;;;;;;5035540;28;20043;-45
2023/04/19 01:41:25;;;;;;;8.32;6.90;;;11.60;99.90;;;;;;5033854;28;20049;-47
2023/04/19 01:43:51;;;;;;;9.95;7.57;;;11.60;99.90;;;;;;5035919;28;20026;-43
2023/04/19 01:46:17;;;;;;;11.32;7.68;;;11.60;99.90;;;;;;5033192;28;20033;-47
2023/04/19 01:48:43;;;;;;;10.38;7.40;;;11.60;99.90;;;;;;5034448;28;20040;-45
2023/04/19 01:51:08;;;;;;;12.65;7.45;;;11.60;99.90;;;;;;5033840;28;20495;-45
2023/04/19 01:53:34;;;;;;;11.18;8.13;;;11.60;99.90;;;;;;5033611;28;20029;-44
2023/04/19 01:55:59;;;;;;;9.25;7.18;;;11.60;99.90;;;;;;5033541;28;20041;-44
2023/04/19 01:58:25;;;;;;;11.25;7.53;;;11.60;99.90;;;;;;5033466;28;20028;-46
2023/04/19 02:00:50;;;;;;;9.98;7.78;;;11.60;99.90;;;;;;5034931;28;20487;-44
2023/04/19 02:03:16;;;;;;;10.70;7.75;;;11.60;99.90;;;;;;5034030;28;20045;-45
2023/04/19 02:05:43;;;;;;;11.40;7.50;;;11.60;99.90;;;;;;5033632;28;20029;-45
2023/04/19 02:08:08;;;;;;;11.32;8.00;;;11.60;99.90;;;;;;5033570;28;20026;-44
2023/04/19 02:10:34;;;;;;;12.07;7.32;;;11.60;99.90;;;;;;5033414;28;20387;-45
2023/04/19 02:13:00;;;;;;;8.93;7.05;;;11.60;99.90;;;;;;5034669;28;20079;-44
2023/04/19 02:15:25;;;;;;;10.13;7.50;;;11.60;99.90;;;;;;5033619;28;20088;-44
2023/04/19 02:17:51;;;;;;;12.73;7.85;;;11.60;99.90;;;;;;5033936;28;20048;-44
2023/04/19 02:20:17;;;;;;;11.60;8.00;;;11.60;99.90;;;;;;5034948;28;20053;-43
2023/04/19 02:22:42;;;;;;;13.63;8.23;;;11.60;99.90;;;;;;5034729;28;20108;-44
2023/04/19 02:25:08;;;;;;;11.23;7.63;;;11.50;99.90;;;;;;5034815;28;20062;-45
2023/04/19 02:27:34;;;;;;;12.23;8.07;;;11.50;99.90;;;;;;5032798;28;20497;-44
2023/04/19 02:29:59;;;;;;;10.73;7.53;;;11.60;99.90;;;;;;5034575;28;20052;-45
2023/04/19 02:32:25;;;;;;;10.70;7.97;;;11.50;99.90;;;;;;5034194;28;20072;-44
2023/04/19 02:34:51;;;;;;;12.15;8.27;;;11.60;99.90;;;;;;5031969;28;20024;-44
2023/04/19 02:37:17;;;;;;;11.82;8.98;;;11.50;99.90;;;;;;5032514;28;20353;-45
2023/04/19 02:39:44;;;;;;;12.32;8.60;;;11.50;99.90;;;;;;5033372;28;20017;-44
2023/04/19 02:42:10;;;;;;;11.40;7.95;;;11.50;99.90;;;;;;5034024;28;20029;-43
2023/04/19 02:44:35;;;;;;;12.50;8.07;;;11.50;99.90;;;;;;5033120;28;20694;-45
2023/04/19 02:47:01;;;;;;;12.35;8.18;;;11.50;99.90;;;;;;5032038;28;20072;-45
2023/04/19 02:49:29;;;;;;;11.75;8.45;;;11.50;99.90;;;;;;5032390;28;20472;-44
2023/04/19 02:51:55;;;;;;;13.77;9.02;;;11.50;99.90;;;;;;5033248;28;20100;-44
2023/04/19 02:54:20;;;;;;;13.25;8.43;;;11.50;99.90;;;;;;5032490;28;20100;-46
2023/04/19 02:56:46;;;;;;;13.35;8.45;;;11.50;99.90;;;;;;5031773;28;20415;-45
2023/04/19 02:59:12;;;;;;;12.90;9.00;;;11.50;99.90;;;;;;5032248;28;20034;-45
2023/04/19 03:01:37;;;;;;;14.80;8.88;;;11.50;99.90;;;;;;5033201;28;20096;-44
2023/04/19 03:04:03;;;;;;;13.32;9.20;;;11.50;99.90;;;;;;5031591;28;20036;-45
2023/04/19 03:06:29;;;;;;;15.48;9.20;;;11.50;99.90;;;;;;5032657;28;20025;-44
2023/04/19 03:08:54;;;;;;;12.50;9.20;;;11.50;99.90;;;;;;5034296;28;20034;-45
2023/04/19 03:11:20;;;;;;;15.10;9.35;;;11.50;99.90;;;;;;5033035;28;20087;-44
2023/04/19 03:13:46;;;;;;;13.27;9.13;;;11.50;99.90;;;;;;5032779;28;20083;-46
2023/04/19 03:16:11;;;;;;;12.90;9.13;;;11.50;99.90;;;;;;5031378;28;20104;-44
2023/04/19 03:18:37;;;;;;;14.52;9.90;;;11.50;99.90;;;;;;5031956;28;20025;-45
2023/04/19 03:21:03;;;;;;;12.15;9.05;;;11.50;99.90;;;;;;5032930;28;20017;-45
2023/04/19 03:23:29;;;;;;;12.43;8.68;;;11.50;99.90;;;;;;5032777;28;20548;-44
2023/04/19 03:25:55;;;;;;;15.40;8.80;;;11.50;99.90;;;;;;5032622;28;20040;-46
2023/04/19 03:28:21;;;;;;;16.27;9.68;;;11.40;99.90;;;;;;5032929;28;20495;-44
2023/04/19 03:30:46;;;;;;;13.88;8.88;;;11.40;99.90;;;;;;5032938;28;20040;-46
2023/04/19 03:33:12;;;;;;;14.18;9.68;;;11.40;99.90;;;;;;5033073;28;20483;-45
2023/04/19 03:35:38;;;;;;;14.98;9.70;;;11.50;99.90;;;;;;5032657;28;20036;-44
2023/04/19 03:38:03;;;;;;;14.75;9.93;;;11.40;99.90;;;;;;5033020;28;20547;-44
2023/04/19 03:40:32;;;;;;;16.80;10.20;;;11.50;99.90;;;;;;5032811;28;20029;-44
2023/04/19 03:42:59;;;;;;;12.10;9.10;;;11.50;99.90;;;;;;5033048;28;20024;-46
2023/04/19 03:45:25;;;;;;;14.65;10.00;;;11.50;99.90;;;;;;5030456;28;20443;-46
2023/04/19 03:47:51;;;;;;;14.07;9.48;;;11.50;99.90;;;;;;5031577;28;20024;-44
2023/04/19 03:50:16;;;;;;;13.27;9.30;;;11.50;99.90;;;;;;5032437;28;20087;-43
2023/04/19 03:52:42;;;;;;;14.07;10.18;;;11.50;99.90;;;;;;5031423;28;20037;-44
2023/04/19 03:55:08;;;;;;;16.20;10.48;;;11.50;99.90;;;;;;5032185;28;20037;-46
2023/04/19 03:57:34;;;;;;;13.68;9.70;;;11.40;99.90;;;;;;5032145;28;20606;-43
2023/04/19 04:00:00;;;;;;;12.73;9.45;;;11.50;99.90;;;;;;5032943;28;20026;-46
2023/04/19 04:02:25;;;;;;;15.75;9.90;;;11.50;99.90;;;;;;5031398;28;20025;-44
2023/04/19 04:04:54;;;;;;;15.85;10.48;;;11.40;99.90;;;;;;5033163;28;20032;-44
2023/04/19 04:07:22;;;;;;;15.07;10.07;;;11.40;99.90;;;;;;5031180;28;20018;-44
2023/04/19 04:09:49;;;;;;;15.68;10.48;;;11.40;99.90;;;;;;5031330;28;20049;-44
2023/04/19 04:12:15;;;;;;;12.82;9.80;;;11.40;99.90;;;;;;5031543;28;20029;-44
2023/04/19 04:14:41;;;;;;;18.70;10.95;;;11.40;99.90;;;;;;5032206;28;20424;-46
2023/04/19 04:17:06;;;;;;;15.60;10.07;;;11.40;99.90;;;;;;5031773;28;20026;-44
2023/04/19 04:19:32;;;;;;;15.73;10.10;;;11.40;99.90;;;;;;5034544;28;20108;-45
2023/04/19 04:21:57;;;;;;;15.00;9.98;;;11.40;99.90;;;;;;5032442;28;20033;-46
2023/04/19 04:24:23;;;;;;;15.48;10.30;;;11.40;99.90;;;;;;5031608;28;20056;-43
2023/04/19 04:26:50;;;;;;;13.93;9.90;;;11.40;99.90;;;;;;5031512;28;20029;-44
2023/04/19 04:29:16;;;;;;;13.88;9.85;;;11.40;99.90;;;;;;5032211;28;20418;-45
2023/04/19 04:31:42;;;;;;;15.65;10.48;;;11.40;99.90;;;;;;5031309;28;20454;-44
2023/04/19 04:34:08;;;;;;;13.55;9.43;;;11.30;99.90;;;;;;5031078;28;20053;-46
2023/04/19 04:36:35;;;;;;;16.95;9.63;;;11.30;99.90;;;;;;5030445;28;20541;-44
2023/04/19 04:39:02;;;;;;;15.65;10.48;;;11.40;99.90;;;;;;5032289;28;20029;-46
2023/04/19 04:41:30;;;;;;;13.27;9.15;;;11.40;99.90;;;;;;5032761;28;20021;-47
2023/04/19 04:43:59;;;;;;;14.77;10.32;;;11.40;99.90;;;;;;5031229;28;20035;-43
2023/04/19 04:46:25;;;;;;;15.13;10.25;;;11.40;99.90;;;;;;5030924;28;20551;-45
2023/04/19 04:48:52;;;;;;;20.52;13.68;;;11.40;99.90;;;;;;5030718;28;20089;-44
2023/04/19 04:51:18;;;;;;;19.23;13.23;;;11.30;99.90;;;;;;5031011;28;20076;-44
2023/04/19 04:53:44;;;;;;;19.60;13.60;;;11.20;99.90;;;;;;5032223;28;20025;-45
2023/04/19 04:56:09;;;;;;;22.95;12.93;;;11.30;99.90;;;;;;5031500;28;20372;-44
2023/04/19 04:58:35;;;;;;;20.27;13.90;;;11.20;99.90;;;;;;5036451;28;20026;-47
2023/04/19 05:01:01;;;;;;;20.75;13.98;;;11.20;99.90;;;;;;5035740;28;20033;-44
2023/04/19 05:03:26;;;;;;;23.33;13.63;;;11.20;99.90;;;;;;5035667;28;20037;-44
2023/04/19 05:05:52;;;;;;;19.90;13.57;;;11.20;99.90;;;;;;5034793;28;20491;-44
2023/04/19 05:08:18;;;;;;;19.20;14.02;;;11.20;99.90;;;;;;5034549;28;20500;-44
2023/04/19 05:10:43;;;;;;;20.13;13.55;;;11.10;99.90;;;;;;5036166;28;20091;-45
2023/04/19 05:13:10;;;;;;;22.73;13.52;;;11.10;99.90;;;;;;5034589;28;20415;-47
2023/04/19 05:15:36;;;;;;;21.65;13.52;;;11.20;99.90;;;;;;5035528;28;20503;-44
2023/04/19 05:18:02;;;;;;;21.25;13.88;;;11.20;99.90;;;;;;5036149;28;20041;-47
2023/04/19 05:20:28;;;;;;;18.13;13.13;;;11.20;99.90;;;;;;5035295;28;20044;-44
2023/04/19 05:22:57;;;;;;;17.15;12.38;;;11.20;99.90;;;;;;5035379;28;20026;-42
2023/04/19 05:25:23;;;;;;;20.08;13.07;;;11.20;99.90;;;;;;5034258;28;20030;-44
2023/04/19 05:27:49;;;;;;;20.67;13.23;;;11.20;99.90;;;;;;5034666;28;20148;-43
2023/04/19 05:30:14;;;;;;;19.83;12.65;;;11.20;99.90;;;;;;5034489;28;20032;-44
2023/04/19 05:32:40;;;;;;;18.00;12.70;;;11.20;99.90;;;;;;5034605;28;20033;-44
2023/04/19 05:35:07;;;;;;;25.00;13.90;;;11.20;99.90;;;;;;5035489;28;20502;-45
2023/04/19 05:37:32;;;;;;;18.80;12.40;;;11.20;99.90;;;;;;5034311;28;20022;-42
2023/04/19 05:39:58;;;;;;;19.33;12.73;;;11.20;99.90;;;;;;5035206;28;20358;-44
2023/04/19 05:42:24;;;;;;;18.75;12.77;;;11.20;99.90;;;;;;5034622;28;20076;-46
2023/04/19 05:44:49;;;;;;;17.05;12.07;;;11.10;99.90;;;;;;5034399;28;20022;-46
2023/04/19 05:47:16;;;;;;;18.77;11.90;;;11.20;99.90;;;;;;5033702;28;20025;-45
2023/04/19 05:49:41;;;;;;;18.65;13.68;;;11.10;99.90;;;;;;5034647;28;20415;-47
2023/04/19 05:52:07;;;;;;;19.42;12.07;;;11.10;99.90;;;;;;5035150;28;20028;-45
2023/04/19 05:54:34;;;;;;;17.88;12.48;;;11.20;99.90;;;;;;5034895;28;20048;-42
2023/04/19 05:57:01;;;;;;;18.55;12.63;;;11.20;99.90;;;;;;5034461;28;20060;-42
2023/04/19 05:59:27;;;;;;;21.88;13.55;;;11.20;99.90;;;;;;5033781;28;20049;-45
2023/04/19 06:01:54;;;;;;;15.55;11.27;;;11.10;99.90;;;;;;5034291;28;20502;-44
2023/04/19 06:04:20;;;;;;;19.25;13.43;;;11.20;99.90;;;;;;5034369;28;20037;-45
2023/04/19 06:06:47;;;;;;;18.55;12.80;;;11.10;99.90;;;;;;5032931;28;20069;-44
2023/04/19 06:09:13;;;;;;;21.10;12.82;;;11.10;99.90;;;;;;5032298;28;20060;-44
2023/04/19 06:11:40;;;;;;;19.55;13.27;;;11.20;99.90;;;;;;5034333;28;20021;-44
2023/04/19 06:14:06;;;;;;;18.58;12.48;;;11.10;99.90;;;;;;5034874;28;20472;-46
2023/04/19 06:16:32;;;;;;;16.17;11.38;;;11.20;99.90;;;;;;5033741;28;20021;-45
2023/04/19 06:18:58;;;;;;;16.13;11.45;;;11.10;99.90;;;;;;5035366;28;20460;-44
2023/04/19 06:21:23;;;;;;;20.95;13.55;;;11.10;99.90;;;;;;5033232;28;20036;-47
2023/04/19 06:23:49;;;;;;;20.67;14.27;;;11.10;99.90;;;;;;5034082;28;20052;-46
2023/04/19 06:26:15;;;;;;;16.60;13.20;;;11.10;99.90;;;;;;5033869;28;20032;-46
2023/04/19 06:28:40;;;;;;;21.10;13.57;;;11.10;99.90;;;;;;5033563;28;20047;-46
2023/04/19 06:31:06;;;;;;;20.45;13.68;;;11.00;99.90;;;;;;5034910;28;20032;-44
2023/04/19 06:33:32;;;;;;;17.88;12.75;;;11.10;99.90;;;;;;5033839;28;20029;-44
2023/04/19 06:35:57;;;;;;;20.73;13.68;;;11.10;99.90;;;;;;5032538;28;20032;-44
2023/04/19 06:38:23;;;;;;;18.92;12.77;;;11.10;99.90;;;;;;5033717;28;20025;-44
2023/04/19 06:40:48;;;;;;;17.10;12.13;;;11.10;99.90;;;;;;5033850;28;20036;-42
2023/04/19 06:43:14;;;;;;;16.63;11.88;;;11.10;99.90;;;;;;5032966;28;20096;-43
2023/04/19 06:45:40;;;;;;;17.58;12.52;;;11.10;99.90;;;;;;5032750;28;20029;-45
2023/04/19 06:48:05;;;;;;;16.25;11.95;;;11.10;99.90;;;;;;5032989;28;20029;-46
2023/04/19 06:50:31;;;;;;;17.40;11.57;;;11.10;99.90;;;;;;5033754;28;20021;-47
2023/04/19 06:52:56;;;;;;;15.20;11.45;;;11.10;99.90;;;;;;5032512;28;20482;-44
2023/04/19 06:55:25;;;;;;;15.80;11.98;;;11.10;99.90;;;;;;5032402;28;20041;-44
2023/04/19 06:57:51;;;;;;;21.00;12.95;;;11.10;99.90;;;;;;5033408;28;20017;-43
2023/04/19 07:00:17;;;;;;;19.88;12.98;;;11.10;99.90;;;;;;5032572;28;20032;-44
2023/04/19 07:02:45;;;;;;;17.95;12.20;;;11.10;99.90;;;;;;5032349;28;20080;-44
2023/04/19 07:05:12;;;;;;;18.98;11.70;;;11.10;99.90;;;;;;5033064;28;20026;-43
2023/04/19 07:07:40;;;;;;;18.40;11.38;;;11.10;99.90;;;;;;5032857;28;20025;-47
2023/04/19 07:10:07;;;;;;;16.55;11.57;;;11.10;99.90;;;;;;5033277;28;20031;-44
2023/04/19 07:12:33;;;;;;;17.92;11.48;;;11.10;99.90;;;;;;5034074;28;20473;-44
2023/04/19 07:14:58;;;;;;;17.98;13.68;;;11.10;99.90;;;;;;5033022;28;20475;-43
2023/04/19 07:17:24;;;;;;;21.13;13.60;;;11.10;99.90;;;;;;5034655;28;20483;-43
2023/04/19 07:19:50;;;;;;;15.43;12.25;;;11.10;99.90;;;;;;5051725;28;20025;-47
2023/04/19 07:22:15;;;;;;;19.75;14.52;;;11.10;99.90;;;;;;5052617;28;20057;-44
2023/04/19 07:24:43;;;;;;;18.23;13.98;;;11.00;99.90;;;;;;5053410;28;20078;-44
2023/04/19 07:27:08;;;;;;;18.98;13.82;;;11.00;99.90;;;;;;5052505;28;20491;-44
2023/04/19 07:29:35;;;;;;;18.45;13.32;;;11.00;99.90;;;;;;5053560;28;20037;-44
2023/04/19 07:32:01;;;;;;;19.75;13.68;;;11.00;99.90;;;;;;5053958;28;20370;-44
2023/04/19 07:34:26;;;;;;;18.05;13.48;;;11.00;99.90;;;;;;5052629;28;20111;-44
2023/04/19 07:36:52;;;;;;;18.67;12.75;;;11.00;99.90;;;;;;5052170;28;20033;-44
2023/04/19 07:39:18;;;;;;;18.45;13.27;;;11.00;99.90;;;;;;5051918;28;20394;-43
2023/04/19 07:41:45;;;;;;;16.50;12.23;;;11.00;99.90;;;;;;5052591;28;20017;-43
2023/04/19 07:44:12;;;;;;;18.98;12.43;;;11.10;99.90;;;;;;5051730;28;20037;-42
2023/04/19 07:46:40;;;;;;;21.48;12.15;;;11.00;99.90;;;;;;5052383;28;20029;-43
2023/04/19 07:49:06;;;;;;;17.55;12.20;;;11.10;99.90;;;;;;5051684;28;20503;-44
2023/04/19 07:51:31;;;;;;;17.25;12.35;;;11.10;99.90;;;;;;5052781;28;20033;-43
2023/04/19 07:53:57;;;;;;;17.15;12.27;;;11.10;99.90;;;;;;5052007;28;20082;-44
2023/04/19 07:56:25;;;;;;;17.98;12.00;;;11.10;99.90;;;;;;5052375;28;20028;-43
2023/04/19 07:58:50;;;;;;;13.75;11.02;;;11.10;99.90;;;;;;5051486;28;20021;-44
2023/04/19 08:01:16;;;;;;;14.23;10.68;;;11.10;99.90;;;;;;5051245;28;20032;-44
2023/04/19 08:03:42;;;;;;;17.20;10.73;;;11.20;99.90;;;;;;5051596;28;20124;-44
2023/04/19 08:06:08;;;;;;;16.13;11.18;;;11.20;99.90;;;;;;5051463;28;20508;-45
2023/04/19 08:08:34;;;;;;;15.05;10.13;;;11.20;99.90;;;;;;5052953;28;20025;-46
2023/04/19 08:11:01;;;;;;;16.80;10.55;;;11.20;99.90;;;;;;5051348;28;20025;-41
2023/04/19 08:13:27;;;;;;;16.52;10.98;;;11.20;99.90;;;;;;5051067;28;20037;-47
2023/04/19 08:15:53;;;;;;;15.02;10.45;;;11.20;99.90;;;;;;5051921;28;20441;-44
2023/04/19 08:18:18;;;;;;;12.55;9.57;;;11.30;99.90;;;;;;5051080;28;20047;-46
2023/04/19 08:20:45;;;;;;;14.13;10.63;;;11.30;99.90;;;;;;5050946;28;20316;-45
2023/04/19 08:23:11;;;;;;;13.52;9.90;;;11.30;99.90;;;;;;5051989;28;20095;-44
2023/04/19 08:25:37;;;;;;;14.80;10.35;;;11.30;99.90;;;;;;5052292;28;20056;-44
2023/04/19 08:28:03;;;;;;;13.32;10.18;;;11.30;99.90;;;;;;5050753;28;20033;-46
2023/04/19 08:30:29;;;;;;;16.35;9.05;;;11.30;99.90;;;;;;5051512;28;20024;-44
2023/04/19 08:32:55;;;;;;;13.32;9.32;;;11.30;99.90;;;;;;5051774;28;20479;-44
2023/04/19 08:35:21;;;;;;;13.45;9.90;;;11.40;99.90;;;;;;5051524;28;20027;-43
2023/04/19 08:37:48;;;;;;;12.52;10.13;;;11.40;99.90;;;;;;5050777;28;20150;-42
2023/04/19 08:40:15;;;;;;;12.98;9.25;;;11.40;99.90;;;;;;5051277;28;20482;-44
2023/04/19 08:42:41;;;;;;;12.57;9.38;;;11.40;99.90;;;;;;5051021;28;20102;-46
2023/04/19 08:45:10;;;;;;;12.13;9.75;;;11.40;99.90;;;;;;5051070;28;20033;-46
2023/04/19 08:47:36;;;;;;;13.52;9.73;;;11.40;99.90;;;;;;5050837;28;20491;-41
2023/04/19 08:50:04;;;;;;;15.18;9.52;;;11.40;99.90;;;;;;5051867;28;20330;-46
2023/04/19 08:52:32;;;;;;;12.20;9.30;;;11.40;99.90;;;;;;5051374;28;20101;-44
2023/04/19 08:55:00;;;;;;;13.27;8.80;;;11.40;99.90;;;;;;5051322;28;20437;-44
2023/04/19 08:57:26;;;;;;;12.27;9.18;;;11.40;99.90;;;;;;5051795;28;20036;-44
2023/04/19 08:59:54;;;;;;;12.75;9.90;;;11.40;99.90;;;;;;5050696;28;20029;-44
2023/04/19 09:02:21;;;;;;;10.90;8.80;;;11.40;99.90;;;;;;5051361;28;20048;-42
2023/04/19 09:04:46;;;;;;;12.85;9.45;;;11.50;99.90;;;;;;5051954;28;20029;-44
2023/04/19 09:07:26;;;;;;;12.93;8.77;;;11.50;99.90;;;;;;5051174;28;20108;-43
2023/04/19 09:10:08;;;;;;;12.77;8.93;;;11.50;99.90;;;;;;5052172;28;20116;-44
2023/04/19 09:12:35;;;;;;;12.90;9.05;;;11.50;99.90;;;;;;5052148;28;20036;-46
2023/04/19 09:15:04;;;;;;;12.25;9.43;;;11.50;99.90;;;;;;5051839;28;20032;-46
2023/04/19 09:17:30;;;;;;;13.35;8.48;;;11.50;99.90;;;;;;5051732;28;20036;-45
2023/04/19 09:19:56;;;;;;;11.55;8.32;;;11.60;99.90;;;;;;5051592;28;20029;-42
2023/04/19 09:22:22;;;;;;;11.95;8.32;;;11.50;99.90;;;;;;5050569;28;20029;-43
2023/04/19 09:24:48;;;;;;;14.20;8.65;;;11.60;99.90;;;;;;5051191;28;20467;-44
2023/04/19 09:27:21;;;;;;;11.07;7.88;;;11.60;99.90;;;;;;5050226;28;20386;-44
2023/04/19 09:29:53;;;;;;;10.77;8.00;;;11.60;99.90;;;;;;5052112;28;20025;-44
2023/04/19 09:32:19;;;;;;;11.07;8.32;;;11.60;99.90;;;;;;5050346;28;20032;-46
2023/04/19 09:34:58;;;;;;;11.52;8.55;;;11.60;99.90;;;;;;5050429;28;20449;-42
2023/04/19 09:37:25;;;;;;;10.40;7.72;;;11.60;99.90;;;;;;5051086;28;20031;-44
2023/04/19 09:39:51;;;;;;;10.48;7.75;;;11.60;99.90;;;;;;5051227;28;20021;-46
2023/04/19 09:42:17;;;;;;;11.60;7.95;;;11.60;99.90;;;;;;5050931;28;20021;-44
2023/04/19 09:44:56;;;;;;;10.25;7.18;;;11.60;99.90;;;;;;5054787;28;20074;-42
2023/04/19 09:47:24;;;;;;;9.77;7.13;;;11.60;99.90;;;;;;5053217;28;20035;-44
2023/04/19 09:50:09;;;;;;;11.30;7.95;;;11.60;99.90;;;;;;5055401;28;20025;-44
2023/04/19 09:52:36;;;;;;;12.88;7.57;;;11.60;99.90;;;;;;5054845;28;20063;-43
2023/04/19 09:55:04;;;;;;;10.20;7.38;;;11.60;99.90;;;;;;5055672;28;20032;-44
2023/04/19 09:57:32;;;;;;;9.55;7.10;;;11.60;99.90;;;;;;5054098;28;20021;-45
2023/04/19 09:59:59;;;;;;;10.10;7.43;;;11.60;99.90;;;;;;5054534;28;20029;-43
2023/04/19 10:02:31;;;;;;;10.27;7.38;;;11.70;99.90;;;;;;5054990;28;20029;-43
2023/04/19 10:04:59;;;;;;;9.93;7.25;;;11.70;99.90;;;;;;5053551;28;20021;-45
2023/04/19 10:07:25;;;;;;;9.90;7.20;;;11.70;99.90;;;;;;5054683;28;20025;-46
2023/04/19 10:09:54;;;;;;;9.55;7.18;;;11.70;99.90;;;;;;5055074;28;20052;-46
2023/04/19 10:12:22;;;;;;;9.57;7.55;;;11.70;99.90;;;;;;5053590;28;20013;-44
2023/04/19 10:14:48;;;;;;;9.05;6.85;;;11.70;99.90;;;;;;5054553;28;20095;-46
2023/04/19 10:17:15;;;;;;;11.50;7.38;;;11.70;99.90;;;;;;5054151;28;20025;-46
2023/04/19 10:19:42;;;;;;;10.65;7.70;;;11.80;99.90;;;;;;5053095;28;20028;-44
2023/04/19 10:22:08;;;;;;;9.40;7.13;;;11.80;99.90;;;;;;5053888;28;20029;-45
2023/04/19 10:24:34;;;;;;;9.85;7.57;;;11.80;99.90;;;;;;5054490;28;20044;-44
2023/04/19 10:27:02;;;;;;;8.63;6.70;;;11.80;99.90;;;;;;5054838;28;20021;-44
2023/04/19 10:29:53;;;;;;;8.70;7.20;;;11.80;99.90;;;;;;5054612;28;20021;-44
2023/04/19 10:32:18;;;;;;;10.18;7.43;;;11.70;99.90;;;;;;5053389;28;20035;-45
2023/04/19 10:34:45;;;;;;;10.25;7.40;;;11.80;99.90;;;;;;5054101;28;20033;-44
2023/04/19 10:37:13;;;;;;;9.15;7.03;;;11.80;99.90;;;;;;5053526;28;20025;-41
2023/04/19 10:39:40;;;;;;;9.77;6.88;;;11.80;99.90;;;;;;5053884;28;20025;-42
2023/04/19 10:42:06;;;;;;;11.38;7.22;;;11.80;99.90;;;;;;5053508;28;20025;-43
2023/04/19 10:44:32;;;;;;;12.77;7.68;;;11.80;99.90;;;;;;5054453;28;20486;-44
2023/04/19 10:46:58;;;;;;;9.38;7.20;;;11.90;99.90;;;;;;5052982;28;20033;-44
2023/04/19 10:49:26;;;;;;;9.40;7.32;;;11.80;99.90;;;;;;5054608;28;20112;-44
2023/04/19 10:51:53;;;;;;;10.60;7.28;;;11.80;99.90;;;;;;5053012;28;20029;-44
2023/04/19 10:54:33;;;;;;;10.13;6.95;;;11.90;99.90;;;;;;5052419;28;20039;-44
2023/04/19 10:57:05;;;;;;;9.98;6.97;;;11.80;99.90;;;;;;5052998;28;20070;-47
2023/04/19 10:59:39;;;;;;;8.00;6.70;;;11.80;99.90;;;;;;5052724;28;20028;-40
2023/04/19 11:02:27;;;;;;;8.88;6.78;;;11.80;99.90;;;;;;5053524;28;20124;-44
2023/04/19 11:04:53;;;;;;;9.55;6.60;;;11.80;99.90;;;;;;5053207;28;20536;-44
2023/04/19 11:07:20;;;;;;;7.80;6.53;;;11.90;99.90;;;;;;5052397;28;20029;-41
2023/04/19 11:09:47;;;;;;;10.52;7.63;;;11.80;99.90;;;;;;5053472;28;20567;-44
2023/04/19 11:12:17;;;;;;;10.20;7.38;;;11.80;99.90;;;;;;5053507;28;20075;-46
2023/04/19 11:14:45;;;;;;;10.70;7.40;;;11.80;99.90;;;;;;5054091;28;20040;-46
2023/04/19 11:17:19;;;;;;;9.98;7.28;;;11.90;99.90;;;;;;5052375;28;20471;-46
2023/04/19 11:20:05;;;;;;;9.60;6.90;;;11.80;99.90;;;;;;5053693;28;20071;-44
2023/04/19 11:22:33;;;;;;;9.15;6.80;;;11.90;99.90;;;;;;5051961;28;20021;-42
2023/04/19 11:25:11;;;;;;;8.60;6.57;;;11.90;99.90;;;;;;5052949;28;20491;-44
2023/04/19 11:27:38;;;;;;;9.23;6.93;;;11.80;99.90;;;;;;5051446;28;20021;-44
2023/04/19 11:30:07;;;;;;;9.35;6.80;;;11.90;99.90;;;;;;5053634;28;20017;-44
2023/04/19 11:32:33;;;;;;;9.20;7.22;;;11.90;99.90;;;;;;5050312;28;20037;-43
2023/04/19 11:35:07;;;;;;;7.82;6.30;;;11.80;99.90;;;;;;5052373;28;20096;-44
2023/04/19 11:37:36;;;;;;;10.83;6.37;;;11.80;99.90;;;;;;5052528;28;20402;-44
2023/04/19 11:40:03;;;;;;;9.88;6.50;;;11.90;99.90;;;;;;5052420;28;20099;-45
2023/04/19 11:42:29;;;;;;;10.68;6.93;;;11.90;99.90;;;;;;5051687;28;20013;-44
2023/04/19 11:44:57;;;;;;;8.07;6.20;;;11.90;99.90;;;;;;5052363;28;20025;-43
2023/04/19 11:47:23;;;;;;;9.23;7.50;;;11.90;99.90;;;;;;5051971;28;20024;-44
2023/04/19 11:49:48;;;;;;;10.32;6.82;;;11.90;99.90;;;;;;5052044;28;20025;-44
2023/04/19 11:52:21;;;;;;;11.43;6.90;;;11.90;99.90;;;;;;5052469;28;20052;-44
2023/04/19 11:54:47;;;;;;;8.85;6.68;;;11.90;99.90;;;;;;5052656;28;20021;-46
2023/04/19 11:57:12;;;;;;;12.48;7.60;;;11.90;99.90;;;;;;5051504;28;20506;-46
2023/04/19 11:59:38;;;;;;;8.32;6.35;;;11.80;99.90;;;;;;5052633;28;20032;-46
2023/04/19 12:02:11;;;;;;;9.27;6.63;;;11.90;99.90;;;;;;5052978;28;20074;-44
2023/04/19 12:04:37;;;;;;;8.90;7.18;;;11.90;99.90;;;;;;5053653;28;20047;-45
2023/04/19 12:07:05;;;;;;;8.07;6.63;;;11.80;99.90;;;;;;5049846;28;20028;-44
2023/04/19 12:09:35;;;;;;;9.90;7.05;;;11.90;99.90;;;;;;5052471;28;20073;-44
2023/04/19 12:12:02;;;;;;;9.85;6.82;;;11.90;99.90;;;;;;5051344;28;20028;-42
2023/04/19 12:14:28;;;;;;;9.60;6.82;;;11.90;99.90;;;;;;5051717;28;20487;-44
2023/04/19 12:17:22;;;;;;;9.35;6.63;;;11.90;99.90;;;;;;5051867;28;20044;-44
2023/04/19 12:19:48;;;;;;;10.52;7.43;;;11.80;99.90;;;;;;5045282;28;20120;-44
2023/04/19 12:22:19;;;;;;;12.57;6.90;;;11.80;99.90;;;;;;5052678;28;20049;-44
2023/04/19 12:24:45;;;;;;;13.63;7.95;;;11.80;99.90;;;;;;5052462;28;20031;-43
2023/04/19 12:27:11;;;;;;;10.50;7.88;;;11.90;99.90;;;;;;5051054;28;20024;-44
2023/04/19 12:29:37;;;;;;;11.80;8.85;;;11.80;99.90;;;;;;5051409;28;20386;-46
2023/04/19 12:32:04;;;;;;;10.20;7.85;;;11.90;99.90;;;;;;5050374;28;20057;-44
2023/04/19 12:34:29;;;;;;;12.27;8.07;;;11.80;99.90;;;;;;5051600;28;20025;-43